Time;durP1;ratioP1;P1;durP2;ratioP2;P2;SDS_P1;SDS_P2;PMS_P1;PMS_P2;Temp;Humidity;BMP_temperature;BMP_pressure;BME280_temperature;BME280_humidity;BME280_pressure;Samples;Min_cycle;Max_cycle;Signal;HPM_P1;HPM_P2
2023/04/02 02:01:21;;;;;;;8.50;8.00;;;6.50;99.90;;;;;;5617136;23;20237;-77
2023/04/02 02:03:51;;;;;;;8.67;8.07;;;6.50;99.90;;;;;;4933151;29;20224;-77
2023/04/02 02:06:19;;;;;;;8.30;7.80;;;6.60;99.90;;;;;;4949449;28;20209;-76
2023/04/02 02:08:49;;;;;;;8.50;8.00;;;6.60;99.90;;;;;;4948989;29;20200;-76
2023/04/02 02:11:20;;;;;;;8.70;8.17;;;6.60;99.90;;;;;;4948597;29;20235;-77
2023/04/02 02:13:48;;;;;;;8.63;8.00;;;6.60;99.90;;;;;;4953394;28;20215;-76
2023/04/02 02:16:19;;;;;;;8.67;8.17;;;6.70;99.90;;;;;;4950840;29;20206;-77
2023/04/02 02:18:49;;;;;;;8.50;8.00;;;6.70;99.90;;;;;;4940226;29;20267;-76
2023/04/02 02:21:26;;;;;;;8.20;7.80;;;6.60;99.90;;;;;;4938774;28;20746;-77
2023/04/02 02:23:54;;;;;;;8.50;8.00;;;6.70;99.90;;;;;;4945736;29;20212;-76
2023/04/02 02:26:24;;;;;;;8.10;7.70;;;6.80;99.90;;;;;;4945049;29;20214;-76
2023/04/02 02:28:55;;;;;;;8.23;7.73;;;6.70;99.90;;;;;;4942894;29;20254;-77
2023/04/02 02:31:29;;;;;;;8.57;8.07;;;6.80;99.90;;;;;;4941476;29;20725;-77
2023/04/02 02:34:02;;;;;;;8.03;7.63;;;6.80;99.90;;;;;;4948593;29;20197;-77
2023/04/02 02:36:34;;;;;;;8.40;7.90;;;6.80;99.90;;;;;;4944652;29;20591;-77
2023/04/02 02:39:10;;;;;;;8.37;7.87;;;6.90;99.90;;;;;;4947755;29;20241;-77
2023/04/02 02:41:46;;;;;;;8.63;8.13;;;6.90;99.90;;;;;;4951309;29;20583;-77
2023/04/02 02:44:19;;;;;;;8.53;8.03;;;6.90;99.90;;;;;;4949752;29;20680;-76
2023/04/02 02:46:52;;;;;;;9.47;8.87;;;7.00;99.90;;;;;;4939988;29;20748;-76
2023/04/02 02:49:24;;;;;;;9.23;8.73;;;7.00;99.90;;;;;;4938720;29;20213;-77
2023/04/02 02:51:58;;;;;;;9.10;8.60;;;7.00;99.90;;;;;;4945723;29;20231;-76
2023/04/02 02:54:34;;;;;;;7.57;7.17;;;7.00;99.90;;;;;;4943882;29;20205;-76
2023/04/02 02:57:05;;;;;;;8.33;7.90;;;7.10;99.90;;;;;;4941847;29;20213;-77
2023/04/02 02:59:33;;;;;;;7.50;7.10;;;7.10;99.90;;;;;;4939602;28;20234;-77
2023/04/02 03:02:05;;;;;;;7.97;7.57;;;7.10;99.90;;;;;;4941950;29;20235;-77
2023/04/02 03:04:34;;;;;;;8.63;8.13;;;7.10;99.90;;;;;;4941562;29;20261;-77
2023/04/02 03:07:04;;;;;;;10.30;9.70;;;7.20;99.90;;;;;;4946334;29;20230;-77
2023/04/02 03:09:40;;;;;;;7.73;7.33;;;7.20;99.90;;;;;;4949243;29;20209;-76
2023/04/02 03:12:23;;;;;;;9.03;8.33;;;7.10;99.90;;;;;;4942949;29;20229;-77
2023/04/02 03:14:57;;;;;;;7.70;7.30;;;7.20;99.90;;;;;;4939046;29;20198;-77
2023/04/02 03:17:32;;;;;;;8.77;8.20;;;7.20;99.90;;;;;;4939064;28;20200;-76
2023/04/02 03:20:06;;;;;;;9.00;8.50;;;7.30;99.90;;;;;;4945037;29;20203;-77
2023/04/02 03:22:41;;;;;;;2.93;2.73;;;7.30;99.90;;;;;;4944994;28;20692;-77
2023/04/02 03:25:21;;;;;;;3.90;3.63;;;7.30;99.90;;;;;;4937277;29;20752;-76
2023/04/02 03:27:51;;;;;;;4.10;3.80;;;7.30;99.90;;;;;;4920854;29;20203;-76
2023/04/02 03:30:30;;;;;;;3.37;3.03;;;7.30;99.90;;;;;;4934513;29;20296;-77
2023/04/02 03:33:05;;;;;;;4.80;4.50;;;7.30;99.90;;;;;;4934114;29;20209;-77
2023/04/02 03:35:37;;;;;;;4.30;4.00;;;7.30;99.90;;;;;;4942873;29;20205;-77
2023/04/02 03:38:07;;;;;;;2.53;2.43;;;7.40;99.90;;;;;;4937861;28;20221;-77
2023/04/02 03:40:39;;;;;;;2.40;2.20;;;7.40;99.90;;;;;;4936527;29;20675;-77
2023/04/02 03:43:16;;;;;;;2.47;2.37;;;7.50;99.90;;;;;;4923654;29;20203;-77
2023/04/02 03:45:48;;;;;;;1.97;1.87;;;7.50;99.90;;;;;;4942619;29;20252;-78
2023/04/02 03:48:21;;;;;;;3.03;2.03;;;7.50;99.90;;;;;;4945232;29;20202;-79
2023/04/02 03:50:55;;;;;;;2.40;2.20;;;7.60;99.90;;;;;;4943727;29;20218;-79
2023/04/02 03:53:24;;;;;;;2.40;2.00;;;7.60;99.90;;;;;;4943551;29;20689;-78
2023/04/02 03:55:52;;;;;;;2.07;1.97;;;7.60;99.90;;;;;;4939771;29;20202;-78
2023/04/02 03:58:24;;;;;;;2.67;2.43;;;7.60;99.90;;;;;;4940589;29;20206;-79
2023/04/02 04:00:57;;;;;;;3.40;3.20;;;7.60;99.90;;;;;;4932698;29;20317;-78
2023/04/02 04:03:31;;;;;;;4.67;4.37;;;7.70;99.90;;;;;;4934390;29;20208;-77
2023/04/02 04:06:01;;;;;;;5.60;5.27;;;7.70;99.90;;;;;;4937295;29;20277;-78
2023/04/02 04:08:36;;;;;;;2.10;2.00;;;7.70;99.90;;;;;;4925935;29;20211;-79
2023/04/02 04:11:09;;;;;;;2.10;2.00;;;7.80;99.90;;;;;;4930573;29;20211;-80
2023/04/02 04:13:43;;;;;;;4.17;3.90;;;7.80;99.90;;;;;;4929408;29;20214;-79
2023/04/02 04:16:16;;;;;;;2.40;2.27;;;7.80;99.90;;;;;;4931046;29;20206;-78
2023/04/02 04:18:50;;;;;;;2.50;2.30;;;7.80;99.90;;;;;;4932921;29;20322;-79
2023/04/02 04:21:28;;;;;;;2.20;2.00;;;7.80;99.90;;;;;;4933525;29;20736;-79
2023/04/02 04:24:03;;;;;;;3.80;3.60;;;7.80;99.90;;;;;;4933179;29;20199;-78
2023/04/02 04:26:39;;;;;;;4.80;4.50;;;7.80;99.90;;;;;;4938204;29;20195;-78
2023/04/02 04:29:18;;;;;;;2.53;2.43;;;7.80;99.90;;;;;;4939718;29;20590;-79
2023/04/02 04:31:48;;;;;;;3.20;3.00;;;7.80;99.90;;;;;;4924844;29;20233;-78
2023/04/02 04:34:19;;;;;;;5.93;5.43;;;7.80;99.90;;;;;;4929762;29;20203;-76
2023/04/02 04:36:53;;;;;;;2.60;2.23;;;7.80;99.90;;;;;;4936804;29;20362;-77
2023/04/02 04:39:28;;;;;;;3.27;3.07;;;7.80;99.90;;;;;;4939276;29;20207;-79
2023/04/02 04:42:00;;;;;;;3.20;2.90;;;7.80;99.90;;;;;;4944430;29;20270;-78
2023/04/02 04:44:41;;;;;;;2.93;2.60;;;7.80;99.90;;;;;;4942232;29;20206;-80
2023/04/02 04:47:15;;;;;;;2.57;2.37;;;7.80;99.90;;;;;;4947497;29;20203;-78
2023/04/02 04:49:47;;;;;;;4.67;4.37;;;7.80;99.90;;;;;;4925726;29;20215;-78
2023/04/02 04:52:20;;;;;;;6.57;6.13;;;7.80;99.90;;;;;;4929984;29;20736;-83
2023/04/02 04:54:47;;;;;;;7.57;7.00;;;7.80;99.90;;;;;;4952759;29;20210;-77
2023/04/02 04:57:27;;;;;;;2.50;2.30;;;7.80;99.90;;;;;;4943834;29;20584;-78
2023/04/02 04:59:59;;;;;;;3.20;3.00;;;7.80;99.90;;;;;;4937471;29;20229;-79
2023/04/02 05:02:32;;;;;;;4.50;4.27;;;7.80;99.90;;;;;;4947275;29;20210;-78
2023/04/02 05:05:02;;;;;;;3.13;2.63;;;7.80;99.90;;;;;;4943329;28;20195;-78
2023/04/02 05:07:31;;;;;;;2.67;2.50;;;7.70;99.90;;;;;;4934869;29;20234;-77
2023/04/02 05:10:06;;;;;;;3.63;2.80;;;7.70;99.90;;;;;;4947395;29;20270;-78
2023/04/02 05:12:42;;;;;;;4.53;4.23;;;7.70;99.90;;;;;;4945107;29;20732;-78
2023/04/02 05:15:16;;;;;;;3.23;2.97;;;7.70;99.90;;;;;;4966019;28;20211;-78
2023/04/02 05:17:50;;;;;;;8.23;7.77;;;7.70;99.90;;;;;;4952954;29;20731;-78
2023/04/02 05:20:24;;;;;;;3.70;3.50;;;7.70;99.90;;;;;;4946110;29;20231;-78
2023/04/02 05:22:57;;;;;;;7.67;7.17;;;7.70;99.90;;;;;;4941393;29;20204;-78
2023/04/02 05:25:27;;;;;;;2.43;2.23;;;7.70;99.90;;;;;;4947955;29;20214;-78
2023/04/02 05:28:01;;;;;;;2.47;2.27;;;7.70;99.90;;;;;;4939745;29;20671;-78
2023/04/02 05:30:40;;;;;;;4.20;3.90;;;7.70;99.90;;;;;;4948863;28;20265;-77
2023/04/02 05:33:21;;;;;;;2.53;2.30;;;7.80;99.90;;;;;;4938206;29;20313;-78
2023/04/02 05:35:55;;;;;;;3.87;3.57;;;7.70;99.90;;;;;;4940183;29;20207;-78
2023/04/02 05:38:26;;;;;;;5.07;4.67;;;7.80;99.90;;;;;;4944309;29;20214;-77
2023/04/02 05:41:00;;;;;;;8.70;8.13;;;7.80;99.90;;;;;;4923633;29;20235;-78
2023/04/02 05:43:30;;;;;;;4.60;4.20;;;7.80;99.90;;;;;;4941695;29;20262;-81
2023/04/02 05:46:02;;;;;;;5.87;3.73;;;7.80;99.90;;;;;;4943274;29;20202;-80
2023/04/02 05:48:33;;;;;;;3.80;3.50;;;7.80;99.90;;;;;;4950986;29;20214;-82
2023/04/02 05:51:04;;;;;;;7.80;7.07;;;7.80;99.90;;;;;;4945587;29;20265;-78
2023/04/02 05:53:36;;;;;;;3.30;3.00;;;7.80;99.90;;;;;;4945191;28;20239;-80
2023/04/02 05:56:10;;;;;;;8.47;7.83;;;7.90;99.90;;;;;;4939570;28;20216;-79
2023/04/02 05:58:41;;;;;;;4.57;4.23;;;7.90;99.90;;;;;;4933150;29;20231;-78
2023/04/02 06:01:36;;;;;;;8.80;8.20;;;7.90;99.90;;;;;;4948875;29;20285;-79
2023/04/02 06:04:17;;;;;;;8.30;7.70;;;7.90;99.90;;;;;;4924988;29;20204;-77
2023/04/02 06:06:56;;;;;;;8.50;8.00;;;7.90;99.90;;;;;;4945161;29;20214;-76
2023/04/02 06:09:31;;;;;;;9.07;8.43;;;7.90;99.90;;;;;;4939908;29;20220;-77
2023/04/02 06:12:08;;;;;;;8.60;8.00;;;8.00;99.90;;;;;;4944914;29;20218;-75
2023/04/02 06:14:36;;;;;;;7.70;7.30;;;8.00;99.90;;;;;;4947539;29;20203;-76
2023/04/02 06:17:03;;;;;;;8.37;7.90;;;8.10;99.90;;;;;;4941783;29;20293;-78
2023/04/02 06:19:34;;;;;;;8.60;8.10;;;8.10;99.90;;;;;;4940962;29;20258;-76
2023/04/02 06:22:18;;;;;;;9.03;8.53;;;8.20;99.90;;;;;;4932410;29;20235;-75
2023/04/02 06:24:50;;;;;;;9.53;8.83;;;8.20;99.90;;;;;;4947755;29;20206;-76
2023/04/02 06:27:21;;;;;;;9.37;8.87;;;8.30;99.90;;;;;;4937137;28;20195;-77
2023/04/02 06:29:51;;;;;;;9.80;9.10;;;8.40;99.90;;;;;;4939294;29;20237;-76
2023/04/02 06:32:22;;;;;;;9.67;9.07;;;8.50;99.90;;;;;;4944585;29;20772;-77
2023/04/02 06:34:50;;;;;;;9.37;8.77;;;8.60;99.90;;;;;;4936985;29;20206;-77
2023/04/02 06:37:26;;;;;;;9.90;9.20;;;8.60;99.90;;;;;;4945999;29;20198;-76
2023/04/02 06:40:00;;;;;;;8.77;8.17;;;8.70;99.90;;;;;;4944990;29;20289;-79
2023/04/02 06:42:31;;;;;;;8.83;8.03;;;8.80;99.90;;;;;;4943990;29;20222;-80
2023/04/02 06:45:32;;;;;;;6.73;6.23;;;8.90;99.90;;;;;;4933100;28;20214;-80
2023/04/02 06:48:21;;;;;;;8.70;8.20;;;9.00;99.90;;;;;;4923905;29;20215;-77
2023/04/02 06:50:57;;;;;;;8.50;8.00;;;9.10;99.90;;;;;;4926141;29;20695;-78
2023/04/02 06:53:29;;;;;;;8.50;8.00;;;9.20;99.90;;;;;;4930230;29;20234;-77
2023/04/02 06:56:03;;;;;;;8.40;7.90;;;9.20;99.90;;;;;;4935845;29;20332;-77
2023/04/02 06:58:31;;;;;;;9.10;8.60;;;9.40;99.90;;;;;;4936097;29;20234;-81
2023/04/02 07:00:59;;;;;;;6.30;5.13;;;9.50;99.90;;;;;;4924126;29;20641;-77
2023/04/02 07:03:35;;;;;;;3.13;2.47;;;9.60;99.90;;;;;;4943421;29;20218;-76
2023/04/02 07:06:14;;;;;;;8.50;8.00;;;9.70;99.90;;;;;;4938935;29;20203;-77
2023/04/02 07:08:43;;;;;;;5.00;4.67;;;9.80;99.90;;;;;;4942972;28;20725;-77
2023/04/02 07:11:13;;;;;;;2.30;2.20;;;9.90;99.90;;;;;;4936718;29;20740;-77
2023/04/02 07:13:40;;;;;;;2.67;2.47;;;10.00;99.90;;;;;;4936901;28;20223;-77
2023/04/02 07:16:14;;;;;;;4.73;4.43;;;10.20;99.90;;;;;;4932831;29;20669;-78
2023/04/02 07:18:41;;;;;;;8.30;7.60;;;10.30;99.90;;;;;;4926519;29;20213;-78
2023/04/02 07:21:08;;;;;;;8.67;8.07;;;10.40;99.90;;;;;;4929460;29;20245;-78
2023/04/02 07:23:36;;;;;;;7.40;6.90;;;10.50;99.90;;;;;;4926394;29;20203;-76
2023/04/02 07:26:05;;;;;;;9.17;8.57;;;10.60;99.90;;;;;;4929956;29;20300;-77
2023/04/02 07:28:32;;;;;;;9.47;8.87;;;10.60;99.90;;;;;;4949571;28;20199;-77
2023/04/02 07:30:59;;;;;;;9.47;8.80;;;10.80;99.90;;;;;;4946365;29;20226;-78
2023/04/02 07:33:28;;;;;;;9.40;8.70;;;10.90;99.90;;;;;;4932867;29;20257;-78
2023/04/02 07:35:57;;;;;;;9.30;8.70;;;10.90;99.90;;;;;;4947370;29;20207;-78
2023/04/02 07:38:24;;;;;;;9.20;8.60;;;11.00;99.90;;;;;;4935233;28;20592;-78
2023/04/02 07:40:51;;;;;;;10.07;9.37;;;11.20;99.90;;;;;;4948884;29;20641;-77
2023/04/02 07:43:19;;;;;;;9.70;9.10;;;11.20;99.90;;;;;;4940310;28;20202;-78
2023/04/02 07:45:46;;;;;;;8.70;8.20;;;11.30;99.90;;;;;;4949211;29;20276;-77
2023/04/02 07:48:14;;;;;;;8.83;8.10;;;11.30;99.90;;;;;;4944387;28;20200;-81
2023/04/02 07:50:41;;;;;;;9.07;8.47;;;11.30;99.90;;;;;;4928544;29;20231;-80
2023/04/02 07:53:08;;;;;;;8.90;8.40;;;11.30;99.90;;;;;;4928630;29;20229;-80
2023/04/02 07:55:35;;;;;;;8.80;8.30;;;11.30;99.90;;;;;;4928952;29;20201;-81
2023/04/02 07:58:03;;;;;;;8.57;8.17;;;11.40;99.90;;;;;;4945051;29;20202;-78
2023/04/02 08:00:31;;;;;;;9.03;8.40;;;11.40;99.90;;;;;;4925365;29;20205;-80
2023/04/02 08:02:57;;;;;;;9.10;8.50;;;11.50;99.90;;;;;;4941467;28;20205;-81
2023/04/02 08:05:25;;;;;;;9.00;8.40;;;11.50;99.90;;;;;;4927778;29;20265;-79
2023/04/02 08:07:55;;;;;;;9.20;8.60;;;11.60;99.90;;;;;;4935519;29;20198;-80
2023/04/02 08:10:23;;;;;;;8.83;8.33;;;11.60;99.90;;;;;;4935711;28;20213;-79
2023/04/02 08:12:50;;;;;;;9.33;8.83;;;11.60;99.90;;;;;;4923987;29;20220;-80
2023/04/02 08:15:17;;;;;;;8.80;8.30;;;11.50;99.90;;;;;;4940674;29;20198;-80
2023/04/02 08:17:46;;;;;;;8.80;8.10;;;11.60;99.90;;;;;;4941516;28;20212;-79
2023/04/02 08:20:16;;;;;;;8.87;8.30;;;11.50;99.90;;;;;;4931189;28;20196;-80
2023/04/02 08:22:44;;;;;;;8.43;7.93;;;11.50;99.90;;;;;;4947466;29;20224;-79
2023/04/02 08:25:11;;;;;;;8.50;8.00;;;11.50;99.90;;;;;;4952428;29;20675;-76
2023/04/02 08:27:38;;;;;;;8.53;8.03;;;11.40;99.90;;;;;;4951729;29;20213;-79
2023/04/02 08:30:07;;;;;;;9.03;8.53;;;11.40;99.90;;;;;;4934906;29;20229;-81
2023/04/02 08:32:34;;;;;;;8.70;8.20;;;11.40;99.90;;;;;;4942611;29;20321;-81
2023/04/02 08:35:03;;;;;;;8.97;8.47;;;11.40;99.90;;;;;;4951291;29;20233;-79
2023/04/02 08:37:30;;;;;;;8.50;8.00;;;11.40;99.90;;;;;;4924323;28;20217;-79
2023/04/02 08:39:56;;;;;;;8.40;8.00;;;11.30;99.90;;;;;;4944889;29;20270;-78
2023/04/02 08:42:33;;;;;;;8.30;7.90;;;11.30;99.90;;;;;;4951984;29;20322;-79
2023/04/02 08:45:11;;;;;;;8.20;7.80;;;11.40;99.90;;;;;;4927705;29;20198;-79
2023/04/02 08:47:40;;;;;;;8.50;8.10;;;11.40;99.90;;;;;;4944666;29;20211;-79
2023/04/02 08:50:15;;;;;;;8.20;7.80;;;11.50;99.90;;;;;;4927846;29;20203;-79
2023/04/02 08:52:42;;;;;;;8.20;7.80;;;11.60;99.90;;;;;;4931129;29;20314;-78
2023/04/02 08:55:24;;;;;;;8.00;7.60;;;11.50;99.90;;;;;;4950471;29;20256;-78
2023/04/02 08:57:57;;;;;;;8.33;7.83;;;11.50;99.90;;;;;;4945759;29;20300;-79
2023/04/02 09:00:32;;;;;;;8.30;7.90;;;11.50;99.90;;;;;;4944270;29;20202;-79
2023/04/02 09:03:02;;;;;;;8.07;7.67;;;11.60;99.90;;;;;;4950039;29;20213;-79
2023/04/02 09:05:33;;;;;;;8.73;8.23;;;11.70;99.90;;;;;;4937506;28;20267;-80
2023/04/02 09:08:03;;;;;;;8.30;7.90;;;11.90;99.90;;;;;;4953310;29;20725;-79
2023/04/02 09:10:38;;;;;;;8.63;8.13;;;12.00;99.90;;;;;;4944675;29;20290;-79
2023/04/02 09:13:15;;;;;;;8.67;8.20;;;12.10;99.90;;;;;;4941067;29;20218;-80
2023/04/02 09:15:42;;;;;;;8.00;7.60;;;12.10;99.90;;;;;;4950514;29;20202;-79
2023/04/02 09:18:14;;;;;;;8.00;7.60;;;12.20;99.90;;;;;;4927951;29;20203;-79
2023/04/02 09:20:43;;;;;;;8.43;7.93;;;12.20;99.90;;;;;;4943630;28;20222;-78
2023/04/02 09:23:16;;;;;;;8.20;7.80;;;12.40;99.90;;;;;;4951841;28;20194;-79
2023/04/02 09:25:47;;;;;;;8.40;8.00;;;12.40;99.90;;;;;;4946918;29;20860;-81
2023/04/02 09:28:15;;;;;;;8.03;7.57;;;12.50;99.90;;;;;;4939482;28;20203;-80
2023/04/02 09:31:01;;;;;;;7.97;7.57;;;12.70;99.90;;;;;;4941964;28;20241;-78
2023/04/02 09:33:45;;;;;;;7.93;7.50;;;12.80;99.90;;;;;;4940381;29;20223;-80
2023/04/02 09:36:33;;;;;;;7.70;7.20;;;12.90;99.90;;;;;;4934483;29;20196;-79
2023/04/02 09:39:05;;;;;;;7.13;6.73;;;13.10;99.90;;;;;;4937677;29;20652;-80
2023/04/02 09:41:33;;;;;;;7.57;7.17;;;13.30;99.90;;;;;;4942347;29;20228;-81
2023/04/02 09:44:23;;;;;;;7.23;6.83;;;13.50;99.90;;;;;;4946411;29;20752;-81
2023/04/02 09:46:53;;;;;;;7.40;7.00;;;13.50;99.90;;;;;;4940140;29;20214;-81
2023/04/02 09:49:24;;;;;;;7.43;7.00;;;13.60;99.90;;;;;;4950605;29;20222;-80
2023/04/02 09:54:44;;;;;;;7.50;7.10;;;13.60;99.90;;;;;;5124842;27;20540;-80
2023/04/02 09:57:22;;;;;;;7.77;7.37;;;14.00;99.90;;;;;;5118287;28;20287;-80
2023/04/02 10:00:11;;;;;;;8.37;7.97;;;14.20;99.90;;;;;;5093855;28;20652;-79
2023/04/02 10:02:40;;;;;;;8.87;8.17;;;14.20;99.90;;;;;;5110692;28;20592;-80
2023/04/02 10:05:18;;;;;;;7.50;7.10;;;14.20;99.90;;;;;;5110750;28;20200;-81
2023/04/02 10:07:47;;;;;;;4.13;3.93;;;14.30;99.90;;;;;;5090268;28;20213;-80
2023/04/02 10:10:26;;;;;;;2.20;2.10;;;14.30;99.90;;;;;;5087643;28;20208;-80
2023/04/02 10:12:59;;;;;;;2.20;2.10;;;14.40;99.90;;;;;;5091909;28;20565;-80
2023/04/02 10:15:33;;;;;;;1.60;1.60;;;14.30;99.90;;;;;;5092639;28;20218;-80
2023/04/02 10:18:08;;;;;;;1.60;1.60;;;14.40;99.90;;;;;;5110321;28;20319;-81
2023/04/02 10:20:38;;;;;;;1.77;1.70;;;14.40;99.90;;;;;;5099449;28;20197;-81
2023/04/02 10:23:05;;;;;;;6.90;6.60;;;14.50;99.90;;;;;;5095488;28;20224;-80
2023/04/02 10:25:42;;;;;;;4.87;4.67;;;14.70;99.90;;;;;;5092402;28;20206;-80
2023/04/02 10:28:18;;;;;;;9.87;9.37;;;14.70;99.90;;;;;;5084786;28;20189;-81
2023/04/02 10:30:56;;;;;;;9.50;9.00;;;14.60;99.90;;;;;;5091969;28;20225;-79
2023/04/02 10:33:31;;;;;;;7.07;6.67;;;14.70;99.90;;;;;;5089896;28;20211;-78
2023/04/02 10:36:06;;;;;;;7.90;7.50;;;14.70;99.90;;;;;;5108582;28;20196;-77
2023/04/02 10:38:43;;;;;;;7.80;7.40;;;14.80;99.90;;;;;;5103068;28;20682;-78
2023/04/02 10:41:26;;;;;;;7.70;7.23;;;15.00;99.90;;;;;;5108490;28;20591;-78
2023/04/02 10:44:06;;;;;;;7.47;7.07;;;15.10;99.90;;;;;;5087577;28;20549;-77
2023/04/02 10:46:42;;;;;;;7.17;6.83;;;15.10;99.90;;;;;;5108189;28;20196;-78
2023/04/02 10:49:20;;;;;;;7.53;7.13;;;15.20;99.90;;;;;;5090284;28;20197;-81
2023/04/02 10:51:53;;;;;;;7.23;6.83;;;15.20;99.90;;;;;;5090177;28;20740;-81
2023/04/02 10:54:37;;;;;;;6.90;6.50;;;15.10;99.90;;;;;;5090041;28;20224;-81
2023/04/02 10:57:12;;;;;;;6.47;6.17;;;15.20;99.90;;;;;;5084241;28;20262;-81
2023/04/02 10:59:43;;;;;;;7.20;6.80;;;15.40;99.90;;;;;;5090731;28;20219;-81
2023/04/02 11:02:37;;;;;;;6.80;6.50;;;15.40;99.90;;;;;;5108879;28;20778;-78
2023/04/02 11:05:14;;;;;;;6.90;6.50;;;15.60;99.90;;;;;;5101408;28;20207;-77
2023/04/02 11:07:51;;;;;;;7.70;7.20;;;15.70;99.90;;;;;;5094922;28;20189;-80
2023/04/02 11:10:20;;;;;;;6.70;6.40;;;15.50;99.90;;;;;;5106512;28;20753;-81
2023/04/02 11:12:54;;;;;;;5.60;5.30;;;15.50;99.90;;;;;;5110757;28;20206;-82
2023/04/02 11:15:22;;;;;;;5.70;5.40;;;15.60;99.90;;;;;;5069443;28;20280;-81
2023/04/02 11:17:49;;;;;;;5.40;5.10;;;15.70;99.90;;;;;;5095021;28;20204;-83
2023/04/02 11:20:42;;;;;;;5.70;5.40;;;15.80;99.90;;;;;;5060628;28;20190;-80
2023/04/02 11:23:11;;;;;;;5.80;5.50;;;15.50;99.90;;;;;;5076725;28;20267;-80
2023/04/02 11:25:38;;;;;;;5.67;5.37;;;15.40;99.90;;;;;;5094729;28;20625;-80
2023/04/02 11:28:31;;;;;;;5.93;5.63;;;15.80;99.90;;;;;;5102933;28;20248;-81
2023/04/02 11:30:58;;;;;;;6.70;6.40;;;15.70;99.90;;;;;;5056335;28;20723;-81
2023/04/02 11:33:39;;;;;;;7.20;6.80;;;15.80;99.90;;;;;;5094230;28;20238;-79
2023/04/02 11:36:49;;;;;;;6.13;5.73;;;16.10;99.90;;;;;;5093719;28;20236;-80
2023/04/02 11:39:48;;;;;;;6.97;6.40;;;16.10;99.90;;;;;;5088553;28;20225;-80
2023/04/02 11:42:28;;;;;;;6.50;6.20;;;16.30;99.90;;;;;;5094370;28;20211;-81
2023/04/02 11:44:56;;;;;;;6.60;6.30;;;16.00;99.90;;;;;;5077413;28;20209;-80
2023/04/02 11:47:24;;;;;;;6.83;6.53;;;16.10;99.90;;;;;;5094842;28;20195;-81
2023/04/02 11:50:03;;;;;;;7.03;6.73;;;16.30;99.90;;;;;;5071596;28;20244;-80
2023/04/02 11:52:49;;;;;;;6.43;6.03;;;16.50;99.90;;;;;;5069281;28;20705;-80
2023/04/02 11:55:32;;;;;;;6.63;6.30;;;16.30;99.90;;;;;;5070917;28;20613;-80
2023/04/02 11:58:23;;;;;;;6.50;6.20;;;15.90;99.90;;;;;;5075095;28;20209;-80
2023/04/02 12:01:29;;;;;;;6.90;6.40;;;15.70;99.90;;;;;;5093732;28;20226;-79
2023/04/02 12:04:23;;;;;;;7.93;7.53;;;15.50;99.90;;;;;;5089111;28;20224;-80
2023/04/02 12:07:26;;;;;;;8.00;7.30;;;14.80;99.90;;;;;;5062086;28;20207;-81
2023/04/02 12:09:55;;;;;;;7.60;7.20;;;14.70;99.90;;;;;;5074686;28;20203;-79
2023/04/02 12:12:32;;;;;;;6.97;6.57;;;14.60;99.90;;;;;;5093316;28;20687;-80
2023/04/02 12:15:00;;;;;;;7.10;6.70;;;14.50;99.90;;;;;;5088731;28;20216;-79
2023/04/02 12:17:32;;;;;;;7.27;6.80;;;14.50;99.90;;;;;;5074252;28;20200;-79
2023/04/02 12:20:01;;;;;;;7.00;6.70;;;14.50;99.90;;;;;;5093100;28;20222;-79
2023/04/02 12:22:30;;;;;;;7.10;6.70;;;14.20;99.90;;;;;;5067896;28;20232;-79
2023/04/02 12:25:00;;;;;;;7.00;6.60;;;14.00;99.90;;;;;;5092964;28;20238;-79
2023/04/02 12:27:29;;;;;;;7.03;6.63;;;14.10;99.90;;;;;;5069167;28;20647;-81
2023/04/02 12:30:10;;;;;;;6.87;6.53;;;14.00;99.90;;;;;;5092648;28;20208;-79
2023/04/02 12:32:37;;;;;;;7.03;6.63;;;13.90;99.90;;;;;;5093612;28;20221;-79
2023/04/02 12:35:07;;;;;;;6.97;6.57;;;13.90;99.90;;;;;;5076738;28;20253;-79
2023/04/02 12:37:33;;;;;;;7.00;6.60;;;13.70;99.90;;;;;;5093118;28;20279;-80
2023/04/02 12:40:05;;;;;;;7.23;6.83;;;13.40;99.90;;;;;;5074407;28;20648;-79
2023/04/02 12:42:35;;;;;;;6.77;6.47;;;13.30;99.90;;;;;;5092703;28;20222;-79
2023/04/02 12:45:05;;;;;;;6.80;6.50;;;13.20;99.90;;;;;;5090243;28;20205;-79
2023/04/02 12:47:32;;;;;;;6.43;6.13;;;13.00;99.90;;;;;;5074636;28;20195;-80
2023/04/02 12:50:01;;;;;;;7.10;6.70;;;12.90;99.90;;;;;;5071682;28;20232;-80
2023/04/02 12:52:29;;;;;;;2.30;2.20;;;12.80;99.90;;;;;;5092497;28;20210;-80
2023/04/02 12:54:58;;;;;;;3.50;3.30;;;12.70;99.90;;;;;;5074020;28;20263;-78
2023/04/02 12:57:39;;;;;;;2.90;2.80;;;12.70;99.90;;;;;;5092187;28;20198;-80
2023/04/02 13:00:29;;;;;;;5.50;5.20;;;12.70;99.90;;;;;;5065356;28;20203;-80
2023/04/02 13:03:01;;;;;;;3.63;3.43;;;12.70;99.90;;;;;;5088793;28;20252;-76
2023/04/02 13:05:34;;;;;;;5.97;5.47;;;12.80;99.90;;;;;;5075066;28;20277;-80
2023/04/02 13:08:01;;;;;;;6.27;5.97;;;12.80;99.90;;;;;;5074392;28;20201;-80
2023/04/02 13:10:28;;;;;;;7.03;6.53;;;12.80;99.90;;;;;;5092590;28;20221;-79
2023/04/02 13:12:58;;;;;;;3.30;3.10;;;12.90;99.90;;;;;;5073914;28;20203;-79
2023/04/02 13:15:30;;;;;;;6.27;5.87;;;12.80;99.90;;;;;;5071675;28;20651;-79
2023/04/02 13:18:06;;;;;;;6.83;6.37;;;13.00;99.90;;;;;;5092201;28;20202;-80
2023/04/02 13:20:34;;;;;;;6.67;6.20;;;13.10;99.90;;;;;;5070670;28;20312;-79
2023/04/02 13:23:22;;;;;;;6.60;6.20;;;13.20;99.90;;;;;;5068136;28;20224;-80
2023/04/02 13:25:49;;;;;;;4.50;4.17;;;13.30;99.90;;;;;;5092223;28;20549;-80
2023/04/02 13:28:17;;;;;;;3.60;3.40;;;13.40;99.90;;;;;;5092045;28;20202;-80
2023/04/02 13:30:44;;;;;;;5.10;4.80;;;13.50;99.90;;;;;;5107384;28;20223;-80
2023/04/02 13:33:11;;;;;;;2.87;2.77;;;13.60;99.90;;;;;;5092842;28;20202;-81
2023/04/02 13:35:38;;;;;;;3.17;2.97;;;13.70;99.90;;;;;;5074388;28;20321;-79
2023/04/02 13:38:05;;;;;;;5.07;4.67;;;13.90;99.90;;;;;;5070673;28;20199;-80
2023/04/02 13:40:34;;;;;;;3.27;3.10;;;14.00;99.90;;;;;;5071571;28;20610;-81
2023/04/02 13:43:01;;;;;;;5.40;5.10;;;14.00;99.90;;;;;;5091097;28;20192;-80
2023/04/02 13:45:33;;;;;;;6.40;6.10;;;14.10;99.90;;;;;;5067148;28;20211;-80
2023/04/02 13:48:00;;;;;;;6.57;6.17;;;14.10;99.90;;;;;;5072967;28;20741;-80
2023/04/02 13:50:29;;;;;;;6.47;6.07;;;14.00;99.90;;;;;;5067988;28;20784;-79
2023/04/02 13:52:58;;;;;;;9.20;8.60;;;13.90;99.90;;;;;;5091739;28;20235;-80
2023/04/02 13:55:29;;;;;;;8.07;7.67;;;13.90;99.90;;;;;;5069474;28;20215;-80
2023/04/02 13:57:57;;;;;;;8.23;7.73;;;13.80;99.90;;;;;;5073539;28;20666;-79
2023/04/02 14:00:25;;;;;;;6.67;6.30;;;14.00;99.90;;;;;;5073768;28;20283;-80
2023/04/02 14:02:59;;;;;;;9.40;8.90;;;13.90;99.90;;;;;;5092703;28;20281;-80
2023/04/02 14:05:36;;;;;;;8.07;7.57;;;14.00;99.90;;;;;;5092429;28;20240;-79
2023/04/02 14:08:10;;;;;;;6.83;6.53;;;14.20;99.90;;;;;;5092388;28;20267;-81
2023/04/02 14:10:55;;;;;;;4.50;4.20;;;14.20;99.90;;;;;;5088058;28;20201;-78
2023/04/02 14:13:36;;;;;;;6.60;6.20;;;14.40;99.90;;;;;;5093668;28;20218;-78
2023/04/02 14:16:22;;;;;;;4.32;4.05;;;14.30;99.90;;;;;;5073941;28;20444;-78
2023/04/02 14:19:08;;;;;;;7.53;7.13;;;14.50;99.90;;;;;;5100125;28;20255;-82
2023/04/02 14:21:45;;;;;;;7.87;7.37;;;14.30;99.90;;;;;;5075042;28;20311;-79
2023/04/02 14:24:19;;;;;;;7.63;7.23;;;14.30;99.90;;;;;;5074760;28;20191;-80
2023/04/02 14:26:58;;;;;;;7.40;7.00;;;14.30;99.90;;;;;;5066465;28;20237;-79
2023/04/02 14:29:31;;;;;;;7.63;7.13;;;14.10;99.90;;;;;;5099502;28;20194;-79
2023/04/02 14:32:05;;;;;;;7.60;7.20;;;14.30;99.90;;;;;;5073505;28;20280;-79
2023/04/02 14:34:39;;;;;;;7.60;7.20;;;14.40;99.90;;;;;;5066278;28;20206;-78
2023/04/02 14:37:16;;;;;;;7.83;7.43;;;14.50;99.90;;;;;;5073006;28;20814;-77
2023/04/02 14:39:50;;;;;;;7.73;7.20;;;14.50;99.90;;;;;;5073084;28;20230;-77
2023/04/02 14:42:21;;;;;;;7.67;7.13;;;14.30;99.90;;;;;;5095256;28;20221;-77
2023/04/02 14:44:52;;;;;;;8.10;7.60;;;14.20;99.90;;;;;;5076092;28;20218;-77
2023/04/02 14:47:23;;;;;;;8.17;7.67;;;14.10;99.90;;;;;;5095282;28;20201;-78
2023/04/02 14:49:57;;;;;;;7.80;7.30;;;14.10;99.90;;;;;;5110907;28;20251;-77
2023/04/02 14:52:26;;;;;;;8.03;7.60;;;13.90;99.90;;;;;;5073521;28;20227;-77
2023/04/02 14:54:58;;;;;;;7.90;7.50;;;13.70;99.90;;;;;;5095293;28;20648;-79
2023/04/02 14:57:29;;;;;;;8.00;7.50;;;13.80;99.90;;;;;;5085145;28;20202;-78
2023/04/02 15:00:04;;;;;;;7.77;7.37;;;13.60;99.90;;;;;;5095519;28;20282;-77
2023/04/02 15:02:40;;;;;;;7.73;7.23;;;13.40;99.90;;;;;;5072770;28;20221;-77
2023/04/02 15:05:17;;;;;;;8.40;7.90;;;13.20;99.90;;;;;;5073500;28;20205;-77
2023/04/02 15:07:49;;;;;;;7.70;7.30;;;13.00;99.90;;;;;;5065262;28;20214;-77
2023/04/02 15:10:23;;;;;;;7.80;7.40;;;12.90;99.90;;;;;;5092183;28;20186;-78
2023/04/02 15:12:51;;;;;;;7.70;7.20;;;12.70;99.90;;;;;;5076775;28;20201;-78
2023/04/02 15:15:25;;;;;;;8.00;7.50;;;12.60;99.90;;;;;;5096164;28;20738;-78
2023/04/02 15:17:52;;;;;;;8.27;7.77;;;12.40;99.90;;;;;;5094869;28;20675;-77
2023/04/02 15:20:20;;;;;;;8.30;7.80;;;12.20;99.90;;;;;;5076806;28;20617;-78
2023/04/02 15:22:58;;;;;;;8.70;8.10;;;12.20;99.90;;;;;;5096779;28;20753;-77
2023/04/02 15:25:33;;;;;;;8.20;7.70;;;12.20;99.90;;;;;;5096690;28;20190;-78